sensor_id;sensor_type;location;lat;lon;timestamp;P1;durP1;ratioP1;P2;durP2;ratioP2
13975;SDS011;7062;49.792;9.946;2023-03-31T00:01:32;1.80;;;0.80;;
13975;SDS011;7062;49.792;9.946;2023-03-31T00:04:00;1.80;;;0.80;;
13975;SDS011;7062;49.792;9.946;2023-03-31T00:06:30;3.90;;;0.60;;
13975;SDS011;7062;49.792;9.946;2023-03-31T00:09:02;1.20;;;0.57;;
13975;SDS011;7062;49.792;9.946;2023-03-31T00:11:29;3.13;;;0.83;;
13975;SDS011;7062;49.792;9.946;2023-03-31T00:13:55;2.90;;;0.60;;
13975;SDS011;7062;49.792;9.946;2023-03-31T00:16:20;4.37;;;1.00;;
13975;SDS011;7062;49.792;9.946;2023-03-31T00:18:46;4.00;;;0.70;;
13975;SDS011;7062;49.792;9.946;2023-03-31T00:21:15;2.90;;;1.17;;
13975;SDS011;7062;49.792;9.946;2023-03-31T00:23:50;4.07;;;0.70;;
13975;SDS011;7062;49.792;9.946;2023-03-31T00:26:23;4.00;;;0.67;;
13975;SDS011;7062;49.792;9.946;2023-03-31T00:28:50;2.70;;;1.00;;
13975;SDS011;7062;49.792;9.946;2023-03-31T00:31:17;1.80;;;0.77;;
13975;SDS011;7062;49.792;9.946;2023-03-31T00:33:43;3.87;;;0.63;;
13975;SDS011;7062;49.792;9.946;2023-03-31T00:36:09;1.77;;;0.63;;
13975;SDS011;7062;49.792;9.946;2023-03-31T00:38:35;2.73;;;0.83;;
13975;SDS011;7062;49.792;9.946;2023-03-31T00:41:01;2.77;;;0.70;;
13975;SDS011;7062;49.792;9.946;2023-03-31T00:43:31;2.10;;;0.60;;
13975;SDS011;7062;49.792;9.946;2023-03-31T00:46:00;3.23;;;0.70;;
13975;SDS011;7062;49.792;9.946;2023-03-31T00:48:46;0.80;;;0.47;;
13975;SDS011;7062;49.792;9.946;2023-03-31T00:51:18;3.40;;;0.70;;
13975;SDS011;7062;49.792;9.946;2023-03-31T00:53:47;2.70;;;0.60;;
13975;SDS011;7062;49.792;9.946;2023-03-31T00:56:23;2.37;;;0.73;;
13975;SDS011;7062;49.792;9.946;2023-03-31T00:58:52;3.50;;;0.87;;
13975;SDS011;7062;49.792;9.946;2023-03-31T01:01:21;2.70;;;0.70;;
13975;SDS011;7062;49.792;9.946;2023-03-31T01:03:51;5.50;;;1.00;;
13975;SDS011;7062;49.792;9.946;2023-03-31T01:06:17;2.37;;;0.50;;
13975;SDS011;7062;49.792;9.946;2023-03-31T01:08:47;3.90;;;0.60;;
13975;SDS011;7062;49.792;9.946;2023-03-31T01:11:16;4.10;;;0.70;;
13975;SDS011;7062;49.792;9.946;2023-03-31T01:13:44;6.53;;;0.73;;
13975;SDS011;7062;49.792;9.946;2023-03-31T01:16:14;4.40;;;0.87;;
13975;SDS011;7062;49.792;9.946;2023-03-31T01:18:41;1.70;;;0.67;;
13975;SDS011;7062;49.792;9.946;2023-03-31T01:32:31;1.70;;;0.63;;
13975;SDS011;7062;49.792;9.946;2023-03-31T01:38:51;4.53;;;1.00;;
13975;SDS011;7062;49.792;9.946;2023-03-31T01:44:45;1.97;;;0.77;;
13975;SDS011;7062;49.792;9.946;2023-03-31T01:50:54;2.60;;;1.00;;
13975;SDS011;7062;49.792;9.946;2023-03-31T01:56:33;2.53;;;0.80;;
13975;SDS011;7062;49.792;9.946;2023-03-31T01:59:09;3.80;;;1.10;;
13975;SDS011;7062;49.792;9.946;2023-03-31T02:01:36;3.30;;;0.90;;
13975;SDS011;7062;49.792;9.946;2023-03-31T02:04:18;5.67;;;1.27;;
13975;SDS011;7062;49.792;9.946;2023-03-31T02:06:47;2.60;;;1.30;;
13975;SDS011;7062;49.792;9.946;2023-03-31T02:09:21;5.07;;;1.00;;
13975;SDS011;7062;49.792;9.946;2023-03-31T02:11:50;10.47;;;1.40;;
13975;SDS011;7062;49.792;9.946;2023-03-31T02:14:19;7.80;;;1.73;;
13975;SDS011;7062;49.792;9.946;2023-03-31T02:16:49;5.00;;;1.43;;
13975;SDS011;7062;49.792;9.946;2023-03-31T02:19:22;3.63;;;1.50;;
13975;SDS011;7062;49.792;9.946;2023-03-31T02:21:52;8.43;;;1.30;;
13975;SDS011;7062;49.792;9.946;2023-03-31T02:24:19;5.87;;;1.67;;
13975;SDS011;7062;49.792;9.946;2023-03-31T02:27:06;7.13;;;1.43;;
13975;SDS011;7062;49.792;9.946;2023-03-31T02:29:45;4.70;;;2.13;;
13975;SDS011;7062;49.792;9.946;2023-03-31T02:32:13;7.17;;;1.60;;
13975;SDS011;7062;49.792;9.946;2023-03-31T02:34:49;3.43;;;1.20;;
13975;SDS011;7062;49.792;9.946;2023-03-31T02:37:14;3.63;;;1.60;;
13975;SDS011;7062;49.792;9.946;2023-03-31T02:39:41;5.93;;;1.33;;
13975;SDS011;7062;49.792;9.946;2023-03-31T02:42:09;5.07;;;0.87;;
13975;SDS011;7062;49.792;9.946;2023-03-31T02:44:36;8.40;;;1.30;;
13975;SDS011;7062;49.792;9.946;2023-03-31T02:47:03;3.73;;;1.67;;
13975;SDS011;7062;49.792;9.946;2023-03-31T02:49:32;4.23;;;1.17;;
13975;SDS011;7062;49.792;9.946;2023-03-31T02:52:08;5.80;;;1.20;;
13975;SDS011;7062;49.792;9.946;2023-03-31T02:57:19;3.33;;;1.17;;
13975;SDS011;7062;49.792;9.946;2023-03-31T03:10:57;3.70;;;1.17;;
13975;SDS011;7062;49.792;9.946;2023-03-31T03:13:41;2.40;;;1.00;;
13975;SDS011;7062;49.792;9.946;2023-03-31T03:16:26;4.27;;;1.30;;
13975;SDS011;7062;49.792;9.946;2023-03-31T03:18:58;4.03;;;1.60;;
13975;SDS011;7062;49.792;9.946;2023-03-31T03:21:30;6.30;;;1.67;;
13975;SDS011;7062;49.792;9.946;2023-03-31T03:23:56;12.77;;;2.23;;
13975;SDS011;7062;49.792;9.946;2023-03-31T03:26:22;4.30;;;1.50;;
13975;SDS011;7062;49.792;9.946;2023-03-31T03:28:52;4.90;;;1.27;;
13975;SDS011;7062;49.792;9.946;2023-03-31T03:31:19;5.00;;;1.07;;
13975;SDS011;7062;49.792;9.946;2023-03-31T03:33:47;8.43;;;1.70;;
13975;SDS011;7062;49.792;9.946;2023-03-31T03:36:13;5.90;;;1.50;;
13975;SDS011;7062;49.792;9.946;2023-03-31T03:38:39;4.17;;;1.07;;
13975;SDS011;7062;49.792;9.946;2023-03-31T03:41:05;5.60;;;1.87;;
13975;SDS011;7062;49.792;9.946;2023-03-31T03:43:31;4.13;;;1.20;;
13975;SDS011;7062;49.792;9.946;2023-03-31T03:45:57;11.00;;;2.20;;
13975;SDS011;7062;49.792;9.946;2023-03-31T03:48:22;5.23;;;1.87;;
13975;SDS011;7062;49.792;9.946;2023-03-31T03:50:48;4.30;;;1.43;;
13975;SDS011;7062;49.792;9.946;2023-03-31T03:53:14;8.73;;;1.20;;
13975;SDS011;7062;49.792;9.946;2023-03-31T03:55:40;5.13;;;1.20;;
13975;SDS011;7062;49.792;9.946;2023-03-31T03:58:06;5.37;;;1.57;;
13975;SDS011;7062;49.792;9.946;2023-03-31T04:00:31;2.70;;;0.87;;
13975;SDS011;7062;49.792;9.946;2023-03-31T04:02:57;6.07;;;1.20;;
13975;SDS011;7062;49.792;9.946;2023-03-31T04:05:23;7.47;;;1.83;;
13975;SDS011;7062;49.792;9.946;2023-03-31T04:07:49;9.07;;;1.57;;
13975;SDS011;7062;49.792;9.946;2023-03-31T04:10:14;5.57;;;1.77;;
13975;SDS011;7062;49.792;9.946;2023-03-31T04:12:40;8.23;;;1.57;;
13975;SDS011;7062;49.792;9.946;2023-03-31T04:15:06;6.23;;;2.13;;
13975;SDS011;7062;49.792;9.946;2023-03-31T04:17:32;8.63;;;1.80;;
13975;SDS011;7062;49.792;9.946;2023-03-31T04:20:05;4.13;;;1.50;;
13975;SDS011;7062;49.792;9.946;2023-03-31T04:22:34;4.57;;;1.60;;
13975;SDS011;7062;49.792;9.946;2023-03-31T04:25:05;3.80;;;1.33;;
13975;SDS011;7062;49.792;9.946;2023-03-31T04:27:44;4.93;;;1.80;;
13975;SDS011;7062;49.792;9.946;2023-03-31T04:30:23;4.07;;;1.30;;
13975;SDS011;7062;49.792;9.946;2023-03-31T04:32:55;4.07;;;1.43;;
13975;SDS011;7062;49.792;9.946;2023-03-31T04:35:22;9.10;;;2.20;;
13975;SDS011;7062;49.792;9.946;2023-03-31T04:37:50;4.53;;;1.47;;
13975;SDS011;7062;49.792;9.946;2023-03-31T04:40:22;5.57;;;1.80;;
13975;SDS011;7062;49.792;9.946;2023-03-31T04:42:49;6.13;;;1.53;;
13975;SDS011;7062;49.792;9.946;2023-03-31T04:45:15;7.60;;;1.57;;
13975;SDS011;7062;49.792;9.946;2023-03-31T04:47:41;4.17;;;1.47;;
13975;SDS011;7062;49.792;9.946;2023-03-31T04:50:07;8.70;;;1.70;;
13975;SDS011;7062;49.792;9.946;2023-03-31T04:52:34;5.43;;;2.00;;
13975;SDS011;7062;49.792;9.946;2023-03-31T04:55:00;5.23;;;1.13;;
13975;SDS011;7062;49.792;9.946;2023-03-31T04:57:26;3.23;;;1.20;;
13975;SDS011;7062;49.792;9.946;2023-03-31T04:59:52;4.77;;;1.47;;
13975;SDS011;7062;49.792;9.946;2023-03-31T05:02:17;6.20;;;1.13;;
13975;SDS011;7062;49.792;9.946;2023-03-31T05:04:48;5.73;;;1.67;;
13975;SDS011;7062;49.792;9.946;2023-03-31T05:07:16;6.13;;;1.93;;
13975;SDS011;7062;49.792;9.946;2023-03-31T05:09:43;11.30;;;1.70;;
13975;SDS011;7062;49.792;9.946;2023-03-31T05:12:09;6.40;;;1.50;;
13975;SDS011;7062;49.792;9.946;2023-03-31T05:14:35;2.93;;;1.00;;
13975;SDS011;7062;49.792;9.946;2023-03-31T05:17:00;4.63;;;1.53;;
13975;SDS011;7062;49.792;9.946;2023-03-31T05:19:26;7.90;;;1.50;;
13975;SDS011;7062;49.792;9.946;2023-03-31T05:21:52;8.60;;;2.47;;
13975;SDS011;7062;49.792;9.946;2023-03-31T05:24:17;8.47;;;1.70;;
13975;SDS011;7062;49.792;9.946;2023-03-31T05:26:43;3.57;;;1.23;;
13975;SDS011;7062;49.792;9.946;2023-03-31T05:29:16;4.97;;;1.40;;
13975;SDS011;7062;49.792;9.946;2023-03-31T05:31:43;5.00;;;1.83;;
13975;SDS011;7062;49.792;9.946;2023-03-31T05:34:09;8.07;;;2.03;;
13975;SDS011;7062;49.792;9.946;2023-03-31T05:36:35;5.37;;;1.43;;
13975;SDS011;7062;49.792;9.946;2023-03-31T05:39:01;4.30;;;1.47;;
13975;SDS011;7062;49.792;9.946;2023-03-31T05:41:28;7.23;;;1.47;;
13975;SDS011;7062;49.792;9.946;2023-03-31T05:43:54;6.60;;;1.57;;
13975;SDS011;7062;49.792;9.946;2023-03-31T05:46:20;7.03;;;1.93;;
13975;SDS011;7062;49.792;9.946;2023-03-31T05:48:46;4.00;;;1.53;;
13975;SDS011;7062;49.792;9.946;2023-03-31T05:51:11;4.43;;;1.37;;
13975;SDS011;7062;49.792;9.946;2023-03-31T05:53:37;9.47;;;1.63;;
13975;SDS011;7062;49.792;9.946;2023-03-31T05:56:03;12.53;;;1.73;;
13975;SDS011;7062;49.792;9.946;2023-03-31T05:58:32;7.00;;;1.87;;
13975;SDS011;7062;49.792;9.946;2023-03-31T06:01:08;7.40;;;1.47;;
13975;SDS011;7062;49.792;9.946;2023-03-31T06:03:36;8.20;;;1.30;;
13975;SDS011;7062;49.792;9.946;2023-03-31T06:06:07;8.30;;;1.63;;
13975;SDS011;7062;49.792;9.946;2023-03-31T06:08:34;5.60;;;1.43;;
13975;SDS011;7062;49.792;9.946;2023-03-31T06:11:05;6.33;;;2.93;;
13975;SDS011;7062;49.792;9.946;2023-03-31T06:13:36;7.60;;;1.60;;
13975;SDS011;7062;49.792;9.946;2023-03-31T06:16:02;5.70;;;1.63;;
13975;SDS011;7062;49.792;9.946;2023-03-31T06:18:29;5.47;;;1.33;;
13975;SDS011;7062;49.792;9.946;2023-03-31T06:20:56;17.50;;;2.40;;
13975;SDS011;7062;49.792;9.946;2023-03-31T06:23:22;6.73;;;1.63;;
13975;SDS011;7062;49.792;9.946;2023-03-31T06:25:48;5.53;;;1.63;;
13975;SDS011;7062;49.792;9.946;2023-03-31T06:28:14;7.60;;;1.73;;
13975;SDS011;7062;49.792;9.946;2023-03-31T06:30:40;5.23;;;2.90;;
13975;SDS011;7062;49.792;9.946;2023-03-31T06:33:05;7.70;;;1.83;;
13975;SDS011;7062;49.792;9.946;2023-03-31T06:35:31;10.43;;;2.30;;
13975;SDS011;7062;49.792;9.946;2023-03-31T06:37:57;10.83;;;2.13;;
13975;SDS011;7062;49.792;9.946;2023-03-31T06:40:23;10.30;;;2.03;;
13975;SDS011;7062;49.792;9.946;2023-03-31T06:42:49;5.43;;;1.77;;
13975;SDS011;7062;49.792;9.946;2023-03-31T06:45:15;7.10;;;1.53;;
13975;SDS011;7062;49.792;9.946;2023-03-31T06:47:40;4.53;;;1.83;;
13975;SDS011;7062;49.792;9.946;2023-03-31T06:50:07;4.83;;;1.63;;
13975;SDS011;7062;49.792;9.946;2023-03-31T06:52:33;6.70;;;2.10;;
13975;SDS011;7062;49.792;9.946;2023-03-31T06:54:59;2.80;;;2.00;;
13975;SDS011;7062;49.792;9.946;2023-03-31T06:57:26;7.07;;;1.63;;
13975;SDS011;7062;49.792;9.946;2023-03-31T06:59:52;3.60;;;1.57;;
13975;SDS011;7062;49.792;9.946;2023-03-31T07:02:17;9.43;;;1.70;;
13975;SDS011;7062;49.792;9.946;2023-03-31T07:04:43;4.87;;;2.37;;
13975;SDS011;7062;49.792;9.946;2023-03-31T07:07:09;10.07;;;2.53;;
13975;SDS011;7062;49.792;9.946;2023-03-31T07:09:35;9.37;;;4.40;;
13975;SDS011;7062;49.792;9.946;2023-03-31T07:12:00;6.87;;;2.77;;
13975;SDS011;7062;49.792;9.946;2023-03-31T07:14:29;7.70;;;1.90;;
13975;SDS011;7062;49.792;9.946;2023-03-31T07:16:57;5.37;;;1.67;;
13975;SDS011;7062;49.792;9.946;2023-03-31T07:19:23;4.77;;;1.80;;
13975;SDS011;7062;49.792;9.946;2023-03-31T07:21:49;7.77;;;1.97;;
13975;SDS011;7062;49.792;9.946;2023-03-31T07:24:15;4.20;;;1.43;;
13975;SDS011;7062;49.792;9.946;2023-03-31T07:26:41;7.17;;;2.53;;
13975;SDS011;7062;49.792;9.946;2023-03-31T07:29:07;10.47;;;2.33;;
13975;SDS011;7062;49.792;9.946;2023-03-31T07:31:33;7.17;;;3.47;;
13975;SDS011;7062;49.792;9.946;2023-03-31T07:34:00;5.67;;;3.20;;
13975;SDS011;7062;49.792;9.946;2023-03-31T07:36:26;7.87;;;3.40;;
13975;SDS011;7062;49.792;9.946;2023-03-31T07:38:52;4.90;;;2.57;;
13975;SDS011;7062;49.792;9.946;2023-03-31T07:41:18;5.40;;;2.13;;
13975;SDS011;7062;49.792;9.946;2023-03-31T07:43:45;5.20;;;2.43;;
13975;SDS011;7062;49.792;9.946;2023-03-31T07:46:21;7.30;;;2.73;;
13975;SDS011;7062;49.792;9.946;2023-03-31T07:48:49;11.67;;;2.53;;
13975;SDS011;7062;49.792;9.946;2023-03-31T07:51:16;4.97;;;2.43;;
13975;SDS011;7062;49.792;9.946;2023-03-31T07:53:44;8.37;;;2.90;;
13975;SDS011;7062;49.792;9.946;2023-03-31T07:56:10;5.87;;;2.73;;
13975;SDS011;7062;49.792;9.946;2023-03-31T07:58:35;8.37;;;2.93;;
13975;SDS011;7062;49.792;9.946;2023-03-31T08:01:01;6.40;;;2.80;;
13975;SDS011;7062;49.792;9.946;2023-03-31T08:03:27;5.53;;;2.77;;
13975;SDS011;7062;49.792;9.946;2023-03-31T08:05:53;5.43;;;3.00;;
13975;SDS011;7062;49.792;9.946;2023-03-31T08:08:20;7.57;;;3.07;;
13975;SDS011;7062;49.792;9.946;2023-03-31T08:10:46;6.93;;;3.07;;
13975;SDS011;7062;49.792;9.946;2023-03-31T08:13:12;6.23;;;2.87;;
13975;SDS011;7062;49.792;9.946;2023-03-31T08:15:38;7.80;;;4.23;;
13975;SDS011;7062;49.792;9.946;2023-03-31T08:18:04;9.20;;;3.47;;
13975;SDS011;7062;49.792;9.946;2023-03-31T08:20:30;9.47;;;3.10;;
13975;SDS011;7062;49.792;9.946;2023-03-31T08:22:56;12.63;;;3.50;;
13975;SDS011;7062;49.792;9.946;2023-03-31T08:25:21;12.00;;;3.23;;
13975;SDS011;7062;49.792;9.946;2023-03-31T08:27:47;7.67;;;2.83;;
13975;SDS011;7062;49.792;9.946;2023-03-31T08:30:17;9.00;;;3.57;;
13975;SDS011;7062;49.792;9.946;2023-03-31T08:32:43;11.43;;;4.67;;
13975;SDS011;7062;49.792;9.946;2023-03-31T08:35:10;5.73;;;3.63;;
13975;SDS011;7062;49.792;9.946;2023-03-31T08:37:36;5.00;;;3.17;;
13975;SDS011;7062;49.792;9.946;2023-03-31T08:40:02;6.80;;;3.20;;
13975;SDS011;7062;49.792;9.946;2023-03-31T08:45:05;7.97;;;3.17;;
13975;SDS011;7062;49.792;9.946;2023-03-31T08:48:37;8.90;;;4.33;;
13975;SDS011;7062;49.792;9.946;2023-03-31T08:50:45;7.33;;;2.80;;
13975;SDS011;7062;49.792;9.946;2023-03-31T08:55:54;8.70;;;4.10;;
13975;SDS011;7062;49.792;9.946;2023-03-31T08:58:26;5.47;;;3.20;;
13975;SDS011;7062;49.792;9.946;2023-03-31T09:06:35;5.27;;;3.00;;
13975;SDS011;7062;49.792;9.946;2023-03-31T09:09:02;5.43;;;3.30;;
13975;SDS011;7062;49.792;9.946;2023-03-31T09:17:23;3.07;;;0.80;;
13975;SDS011;7062;49.792;9.946;2023-03-31T09:22:27;0.87;;;0.73;;
13975;SDS011;7062;49.792;9.946;2023-03-31T09:27:28;5.97;;;1.20;;
13975;SDS011;7062;49.792;9.946;2023-03-31T09:30:00;1.73;;;1.10;;
13975;SDS011;7062;49.792;9.946;2023-03-31T09:32:49;5.13;;;1.33;;
13975;SDS011;7062;49.792;9.946;2023-03-31T09:35:27;1.63;;;1.30;;
13975;SDS011;7062;49.792;9.946;2023-03-31T09:37:57;3.83;;;1.23;;
13975;SDS011;7062;49.792;9.946;2023-03-31T09:40:24;3.37;;;1.00;;
13975;SDS011;7062;49.792;9.946;2023-03-31T09:42:53;2.80;;;0.80;;
13975;SDS011;7062;49.792;9.946;2023-03-31T09:45:32;3.17;;;0.80;;
13975;SDS011;7062;49.792;9.946;2023-03-31T09:48:10;4.33;;;1.10;;
13975;SDS011;7062;49.792;9.946;2023-03-31T09:50:48;1.47;;;0.87;;
13975;SDS011;7062;49.792;9.946;2023-03-31T09:53:30;2.97;;;0.90;;
13975;SDS011;7062;49.792;9.946;2023-03-31T09:56:30;1.97;;;0.60;;
13975;SDS011;7062;49.792;9.946;2023-03-31T09:59:02;1.97;;;0.60;;
13975;SDS011;7062;49.792;9.946;2023-03-31T10:01:28;1.93;;;0.40;;
13975;SDS011;7062;49.792;9.946;2023-03-31T10:03:54;3.77;;;1.00;;
13975;SDS011;7062;49.792;9.946;2023-03-31T10:06:21;1.93;;;0.70;;
13975;SDS011;7062;49.792;9.946;2023-03-31T10:08:50;0.90;;;0.60;;
13975;SDS011;7062;49.792;9.946;2023-03-31T10:11:23;3.50;;;0.93;;
13975;SDS011;7062;49.792;9.946;2023-03-31T10:13:58;2.00;;;0.97;;
13975;SDS011;7062;49.792;9.946;2023-03-31T10:16:30;0.90;;;0.53;;
13975;SDS011;7062;49.792;9.946;2023-03-31T10:22:02;3.00;;;0.93;;
13975;SDS011;7062;49.792;9.946;2023-03-31T10:24:40;1.77;;;1.03;;
13975;SDS011;7062;49.792;9.946;2023-03-31T10:27:14;3.67;;;0.90;;
13975;SDS011;7062;49.792;9.946;2023-03-31T10:30:08;4.13;;;1.37;;
13975;SDS011;7062;49.792;9.946;2023-03-31T10:32:37;3.40;;;1.00;;
13975;SDS011;7062;49.792;9.946;2023-03-31T10:35:53;4.47;;;1.13;;
13975;SDS011;7062;49.792;9.946;2023-03-31T10:37:57;2.77;;;1.07;;
13975;SDS011;7062;49.792;9.946;2023-03-31T10:40:28;4.13;;;1.10;;
13975;SDS011;7062;49.792;9.946;2023-03-31T10:45:40;2.40;;;0.90;;
13975;SDS011;7062;49.792;9.946;2023-03-31T10:48:30;1.97;;;0.70;;
13975;SDS011;7062;49.792;9.946;2023-03-31T10:50:58;1.20;;;0.43;;
13975;SDS011;7062;49.792;9.946;2023-03-31T10:53:25;2.27;;;0.50;;
13975;SDS011;7062;49.792;9.946;2023-03-31T10:58:33;0.70;;;0.30;;
13975;SDS011;7062;49.792;9.946;2023-03-31T11:06:54;0.20;;;0.20;;
13975;SDS011;7062;49.792;9.946;2023-03-31T11:20:32;2.10;;;0.30;;
13975;SDS011;7062;49.792;9.946;2023-03-31T11:31:04;2.00;;;0.30;;
13975;SDS011;7062;49.792;9.946;2023-03-31T11:42:41;1.17;;;0.50;;
13975;SDS011;7062;49.792;9.946;2023-03-31T11:45:54;3.33;;;0.60;;
13975;SDS011;7062;49.792;9.946;2023-03-31T11:51:02;6.80;;;1.00;;
13975;SDS011;7062;49.792;9.946;2023-03-31T11:53:32;2.80;;;0.80;;
13975;SDS011;7062;49.792;9.946;2023-03-31T11:56:01;5.03;;;0.93;;
13975;SDS011;7062;49.792;9.946;2023-03-31T11:58:32;4.40;;;0.97;;
13975;SDS011;7062;49.792;9.946;2023-03-31T12:01:06;4.30;;;1.00;;
13975;SDS011;7062;49.792;9.946;2023-03-31T12:03:55;4.07;;;0.70;;
13975;SDS011;7062;49.792;9.946;2023-03-31T12:06:29;4.13;;;1.07;;
13975;SDS011;7062;49.792;9.946;2023-03-31T12:14:26;3.03;;;0.60;;
13975;SDS011;7062;49.792;9.946;2023-03-31T12:17:03;2.23;;;0.50;;
13975;SDS011;7062;49.792;9.946;2023-03-31T12:22:17;4.03;;;0.77;;
13975;SDS011;7062;49.792;9.946;2023-03-31T12:24:47;0.93;;;0.80;;
13975;SDS011;7062;49.792;9.946;2023-03-31T12:27:22;1.33;;;0.70;;
13975;SDS011;7062;49.792;9.946;2023-03-31T12:32:29;1.70;;;0.30;;
13975;SDS011;7062;49.792;9.946;2023-03-31T12:35:01;2.47;;;0.93;;
13975;SDS011;7062;49.792;9.946;2023-03-31T12:57:27;3.07;;;0.53;;
13975;SDS011;7062;49.792;9.946;2023-03-31T13:02:37;3.73;;;0.70;;
13975;SDS011;7062;49.792;9.946;2023-03-31T13:08:03;3.40;;;0.50;;
13975;SDS011;7062;49.792;9.946;2023-03-31T13:10:31;1.67;;;1.00;;
13975;SDS011;7062;49.792;9.946;2023-03-31T13:13:02;4.03;;;0.93;;
13975;SDS011;7062;49.792;9.946;2023-03-31T13:15:39;2.33;;;1.00;;
13975;SDS011;7062;49.792;9.946;2023-03-31T13:18:05;2.60;;;0.60;;
13975;SDS011;7062;49.792;9.946;2023-03-31T13:20:35;3.27;;;0.63;;
13975;SDS011;7062;49.792;9.946;2023-03-31T13:23:13;2.33;;;1.20;;
13975;SDS011;7062;49.792;9.946;2023-03-31T13:25:54;3.93;;;0.50;;
13975;SDS011;7062;49.792;9.946;2023-03-31T13:31:19;4.37;;;0.93;;
13975;SDS011;7062;49.792;9.946;2023-03-31T13:33:58;6.03;;;2.27;;
13975;SDS011;7062;49.792;9.946;2023-03-31T13:50:12;2.00;;;0.70;;
13975;SDS011;7062;49.792;9.946;2023-03-31T13:55:27;2.73;;;0.70;;
13975;SDS011;7062;49.792;9.946;2023-03-31T14:04:07;3.60;;;0.83;;
13975;SDS011;7062;49.792;9.946;2023-03-31T14:07:01;2.57;;;0.90;;
13975;SDS011;7062;49.792;9.946;2023-03-31T14:09:34;3.37;;;0.70;;
13975;SDS011;7062;49.792;9.946;2023-03-31T14:14:57;1.87;;;0.50;;
13975;SDS011;7062;49.792;9.946;2023-03-31T14:17:25;1.97;;;0.60;;
13975;SDS011;7062;49.792;9.946;2023-03-31T14:22:49;2.53;;;0.40;;
13975;SDS011;7062;49.792;9.946;2023-03-31T14:39:11;3.50;;;0.80;;
13975;SDS011;7062;49.792;9.946;2023-03-31T14:41:40;1.57;;;0.50;;
13975;SDS011;7062;49.792;9.946;2023-03-31T14:44:10;2.53;;;0.87;;
13975;SDS011;7062;49.792;9.946;2023-03-31T14:46:39;2.97;;;0.90;;
13975;SDS011;7062;49.792;9.946;2023-03-31T14:49:27;1.90;;;0.70;;
13975;SDS011;7062;49.792;9.946;2023-03-31T14:52:07;3.07;;;0.57;;
13975;SDS011;7062;49.792;9.946;2023-03-31T14:54:43;4.37;;;0.73;;
13975;SDS011;7062;49.792;9.946;2023-03-31T14:57:16;4.27;;;1.20;;
13975;SDS011;7062;49.792;9.946;2023-03-31T14:59:49;1.57;;;0.67;;
13975;SDS011;7062;49.792;9.946;2023-03-31T15:02:18;6.30;;;1.27;;
13975;SDS011;7062;49.792;9.946;2023-03-31T15:04:58;3.13;;;0.47;;
13975;SDS011;7062;49.792;9.946;2023-03-31T15:07:31;1.87;;;0.80;;
13975;SDS011;7062;49.792;9.946;2023-03-31T15:09:57;3.00;;;0.77;;
13975;SDS011;7062;49.792;9.946;2023-03-31T15:12:23;2.57;;;0.70;;
13975;SDS011;7062;49.792;9.946;2023-03-31T15:14:53;0.87;;;0.43;;
13975;SDS011;7062;49.792;9.946;2023-03-31T15:17:29;3.57;;;0.63;;
13975;SDS011;7062;49.792;9.946;2023-03-31T15:19:58;2.60;;;0.83;;
13975;SDS011;7062;49.792;9.946;2023-03-31T15:22:26;2.83;;;0.53;;
13975;SDS011;7062;49.792;9.946;2023-03-31T15:24:54;0.83;;;0.43;;
13975;SDS011;7062;49.792;9.946;2023-03-31T15:30:02;1.97;;;0.60;;
13975;SDS011;7062;49.792;9.946;2023-03-31T15:32:33;2.20;;;0.67;;
13975;SDS011;7062;49.792;9.946;2023-03-31T15:35:01;1.43;;;0.40;;
13975;SDS011;7062;49.792;9.946;2023-03-31T15:37:41;2.73;;;0.67;;
13975;SDS011;7062;49.792;9.946;2023-03-31T15:42:43;4.03;;;0.80;;
13975;SDS011;7062;49.792;9.946;2023-03-31T15:47:49;1.43;;;0.37;;
13975;SDS011;7062;49.792;9.946;2023-03-31T15:50:16;2.03;;;0.47;;
13975;SDS011;7062;49.792;9.946;2023-03-31T15:52:45;2.23;;;0.53;;
13975;SDS011;7062;49.792;9.946;2023-03-31T15:57:48;2.10;;;0.57;;
13975;SDS011;7062;49.792;9.946;2023-03-31T16:03:02;1.17;;;0.53;;
13975;SDS011;7062;49.792;9.946;2023-03-31T16:05:39;2.27;;;0.60;;
13975;SDS011;7062;49.792;9.946;2023-03-31T16:08:12;2.47;;;0.63;;
13975;SDS011;7062;49.792;9.946;2023-03-31T16:10:42;2.27;;;0.40;;
13975;SDS011;7062;49.792;9.946;2023-03-31T16:13:09;1.53;;;0.40;;
13975;SDS011;7062;49.792;9.946;2023-03-31T16:15:41;2.83;;;0.60;;
13975;SDS011;7062;49.792;9.946;2023-03-31T16:18:13;2.50;;;0.50;;
13975;SDS011;7062;49.792;9.946;2023-03-31T16:20:43;0.83;;;0.50;;
13975;SDS011;7062;49.792;9.946;2023-03-31T16:23:20;1.23;;;0.37;;
13975;SDS011;7062;49.792;9.946;2023-03-31T16:25:51;4.50;;;0.90;;
13975;SDS011;7062;49.792;9.946;2023-03-31T16:28:25;2.00;;;0.60;;
13975;SDS011;7062;49.792;9.946;2023-03-31T16:30:53;3.07;;;0.60;;
13975;SDS011;7062;49.792;9.946;2023-03-31T16:33:20;4.13;;;0.60;;
13975;SDS011;7062;49.792;9.946;2023-03-31T16:35:50;2.77;;;0.63;;
13975;SDS011;7062;49.792;9.946;2023-03-31T16:38:20;3.47;;;0.80;;
13975;SDS011;7062;49.792;9.946;2023-03-31T16:40:48;1.03;;;0.30;;
13975;SDS011;7062;49.792;9.946;2023-03-31T16:45:59;3.17;;;0.50;;
13975;SDS011;7062;49.792;9.946;2023-03-31T16:48:27;2.63;;;0.43;;
13975;SDS011;7062;49.792;9.946;2023-03-31T16:50:55;0.90;;;0.40;;
13975;SDS011;7062;49.792;9.946;2023-03-31T16:53:23;0.90;;;0.50;;
13975;SDS011;7062;49.792;9.946;2023-03-31T16:55:53;3.17;;;0.37;;
13975;SDS011;7062;49.792;9.946;2023-03-31T16:58:20;0.73;;;0.23;;
13975;SDS011;7062;49.792;9.946;2023-03-31T17:00:48;2.77;;;0.40;;
13975;SDS011;7062;49.792;9.946;2023-03-31T17:03:14;2.23;;;0.50;;
13975;SDS011;7062;49.792;9.946;2023-03-31T17:05:41;0.57;;;0.40;;
13975;SDS011;7062;49.792;9.946;2023-03-31T17:08:13;0.97;;;0.33;;
13975;SDS011;7062;49.792;9.946;2023-03-31T17:10:40;1.33;;;0.33;;
13975;SDS011;7062;49.792;9.946;2023-03-31T17:13:06;2.30;;;0.67;;
13975;SDS011;7062;49.792;9.946;2023-03-31T17:15:33;1.60;;;0.73;;
13975;SDS011;7062;49.792;9.946;2023-03-31T17:18:00;3.47;;;0.50;;
13975;SDS011;7062;49.792;9.946;2023-03-31T17:20:27;1.10;;;0.50;;
13975;SDS011;7062;49.792;9.946;2023-03-31T17:22:53;1.40;;;0.70;;
13975;SDS011;7062;49.792;9.946;2023-03-31T17:25:19;3.20;;;0.83;;
13975;SDS011;7062;49.792;9.946;2023-03-31T17:27:45;3.17;;;0.97;;
13975;SDS011;7062;49.792;9.946;2023-03-31T17:30:11;1.37;;;0.43;;
13975;SDS011;7062;49.792;9.946;2023-03-31T17:32:38;3.23;;;0.80;;
13975;SDS011;7062;49.792;9.946;2023-03-31T17:35:04;3.17;;;0.63;;
13975;SDS011;7062;49.792;9.946;2023-03-31T17:37:31;2.83;;;0.70;;
13975;SDS011;7062;49.792;9.946;2023-03-31T17:39:57;2.30;;;1.13;;
13975;SDS011;7062;49.792;9.946;2023-03-31T17:42:23;3.53;;;1.47;;
13975;SDS011;7062;49.792;9.946;2023-03-31T17:44:48;1.77;;;0.40;;
13975;SDS011;7062;49.792;9.946;2023-03-31T17:47:15;2.50;;;0.83;;
13975;SDS011;7062;49.792;9.946;2023-03-31T17:49:41;3.43;;;0.70;;
13975;SDS011;7062;49.792;9.946;2023-03-31T17:52:07;6.70;;;0.87;;
13975;SDS011;7062;49.792;9.946;2023-03-31T17:54:33;3.93;;;0.87;;
13975;SDS011;7062;49.792;9.946;2023-03-31T17:56:58;2.33;;;0.60;;
13975;SDS011;7062;49.792;9.946;2023-03-31T17:59:25;3.83;;;0.80;;
13975;SDS011;7062;49.792;9.946;2023-03-31T18:01:51;2.67;;;0.60;;
13975;SDS011;7062;49.792;9.946;2023-03-31T18:04:17;2.47;;;0.60;;
13975;SDS011;7062;49.792;9.946;2023-03-31T18:06:42;2.47;;;0.67;;
13975;SDS011;7062;49.792;9.946;2023-03-31T18:09:09;6.47;;;0.80;;
13975;SDS011;7062;49.792;9.946;2023-03-31T18:11:36;4.53;;;0.57;;
13975;SDS011;7062;49.792;9.946;2023-03-31T18:14:02;2.20;;;0.57;;
13975;SDS011;7062;49.792;9.946;2023-03-31T18:16:29;2.53;;;0.80;;
13975;SDS011;7062;49.792;9.946;2023-03-31T18:18:55;4.23;;;0.60;;
13975;SDS011;7062;49.792;9.946;2023-03-31T18:21:21;4.50;;;0.83;;
13975;SDS011;7062;49.792;9.946;2023-03-31T18:23:47;0.73;;;0.43;;
13975;SDS011;7062;49.792;9.946;2023-03-31T18:26:16;1.07;;;0.33;;
13975;SDS011;7062;49.792;9.946;2023-03-31T18:28:43;1.50;;;0.40;;
13975;SDS011;7062;49.792;9.946;2023-03-31T18:31:09;3.20;;;0.57;;
13975;SDS011;7062;49.792;9.946;2023-03-31T18:33:36;2.37;;;0.73;;
13975;SDS011;7062;49.792;9.946;2023-03-31T18:36:02;3.33;;;1.17;;
13975;SDS011;7062;49.792;9.946;2023-03-31T18:38:28;5.47;;;0.83;;